sensor_id;sensor_type;location;lat;lon;timestamp;pressure;altitude;pressure_sealevel;temperature;humidity
16544;BME280;8384;47.996;7.786;2023-07-08T00:01:39;98716.59;;;20.55;53.39
16544;BME280;8384;47.996;7.786;2023-07-08T00:04:04;98712.84;;;20.60;52.32
16544;BME280;8384;47.996;7.786;2023-07-08T00:06:30;98715.78;;;20.55;52.50
16544;BME280;8384;47.996;7.786;2023-07-08T00:08:55;98704.88;;;20.23;50.50
16544;BME280;8384;47.996;7.786;2023-07-08T00:11:21;98701.28;;;20.22;54.94
16544;BME280;8384;47.996;7.786;2023-07-08T00:13:46;98699.81;;;20.34;52.16
16544;BME280;8384;47.996;7.786;2023-07-08T00:16:13;98699.16;;;20.46;53.40
16544;BME280;8384;47.996;7.786;2023-07-08T00:18:39;98685.56;;;19.83;61.43
16544;BME280;8384;47.996;7.786;2023-07-08T00:21:09;98703.41;;;19.99;59.70
16544;BME280;8384;47.996;7.786;2023-07-08T00:23:34;98699.66;;;19.95;58.39
16544;BME280;8384;47.996;7.786;2023-07-08T00:26:01;98682.78;;;19.74;59.79
16544;BME280;8384;47.996;7.786;2023-07-08T00:28:26;98676.56;;;19.59;57.62
16544;BME280;8384;47.996;7.786;2023-07-08T00:30:51;98675.91;;;19.62;58.26
16544;BME280;8384;47.996;7.786;2023-07-08T00:33:18;98692.22;;;19.64;55.73
16544;BME280;8384;47.996;7.786;2023-07-08T00:35:44;98695.94;;;19.51;59.06
16544;BME280;8384;47.996;7.786;2023-07-08T00:38:20;98699.31;;;19.39;60.72
16544;BME280;8384;47.996;7.786;2023-07-08T00:40:51;98694.63;;;19.48;59.86
16544;BME280;8384;47.996;7.786;2023-07-08T00:43:17;98688.09;;;19.44;60.91
16544;BME280;8384;47.996;7.786;2023-07-08T00:45:49;98698.69;;;19.51;59.25
16544;BME280;8384;47.996;7.786;2023-07-08T00:48:34;98688.72;;;19.32;60.86
16544;BME280;8384;47.996;7.786;2023-07-08T00:51:00;98701.56;;;19.28;62.49
16544;BME280;8384;47.996;7.786;2023-07-08T00:53:31;98702.50;;;19.14;61.34
16544;BME280;8384;47.996;7.786;2023-07-08T00:56:36;98695.50;;;18.85;63.43
16544;BME280;8384;47.996;7.786;2023-07-08T00:59:24;98704.63;;;18.86;62.51
16544;BME280;8384;47.996;7.786;2023-07-08T01:01:50;98682.31;;;18.59;64.18
16544;BME280;8384;47.996;7.786;2023-07-08T01:04:25;98717.97;;;18.84;64.63
16544;BME280;8384;47.996;7.786;2023-07-08T01:06:56;98699.88;;;18.78;64.33
16544;BME280;8384;47.996;7.786;2023-07-08T01:09:25;98730.63;;;18.99;64.80
16544;BME280;8384;47.996;7.786;2023-07-08T01:11:53;98725.47;;;18.83;66.42
16544;BME280;8384;47.996;7.786;2023-07-08T01:14:20;98712.28;;;18.57;67.03
16544;BME280;8384;47.996;7.786;2023-07-08T01:16:47;98727.84;;;18.76;65.92
16544;BME280;8384;47.996;7.786;2023-07-08T01:19:16;98742.56;;;18.85;65.97
16544;BME280;8384;47.996;7.786;2023-07-08T01:22:05;98738.91;;;18.99;66.80
16544;BME280;8384;47.996;7.786;2023-07-08T01:24:33;98731.16;;;18.87;67.06
16544;BME280;8384;47.996;7.786;2023-07-08T01:27:00;98748.25;;;18.80;67.19
16544;BME280;8384;47.996;7.786;2023-07-08T01:29:26;98729.91;;;18.93;66.49
16544;BME280;8384;47.996;7.786;2023-07-08T01:31:54;98746.31;;;19.03;66.44
16544;BME280;8384;47.996;7.786;2023-07-08T01:34:20;98728.09;;;18.88;65.90
16544;BME280;8384;47.996;7.786;2023-07-08T01:36:48;98761.78;;;19.05;66.33
16544;BME280;8384;47.996;7.786;2023-07-08T01:39:17;98767.31;;;19.05;66.77
16544;BME280;8384;47.996;7.786;2023-07-08T01:41:44;98759.69;;;18.87;67.60
16544;BME280;8384;47.996;7.786;2023-07-08T01:44:27;98760.97;;;18.81;67.96
16544;BME280;8384;47.996;7.786;2023-07-08T01:46:55;98743.84;;;18.79;67.83
16544;BME280;8384;47.996;7.786;2023-07-08T01:49:21;98758.13;;;18.95;67.79
16544;BME280;8384;47.996;7.786;2023-07-08T01:51:48;98752.81;;;19.08;66.53
16544;BME280;8384;47.996;7.786;2023-07-08T01:54:14;98750.63;;;19.18;65.42
16544;BME280;8384;47.996;7.786;2023-07-08T01:56:39;98752.38;;;19.14;66.31
16544;BME280;8384;47.996;7.786;2023-07-08T01:59:04;98761.50;;;19.15;66.57
16544;BME280;8384;47.996;7.786;2023-07-08T02:01:29;98747.38;;;19.25;65.38
16544;BME280;8384;47.996;7.786;2023-07-08T02:03:55;98750.00;;;19.30;65.42
16544;BME280;8384;47.996;7.786;2023-07-08T02:06:20;98736.09;;;19.22;65.48
16544;BME280;8384;47.996;7.786;2023-07-08T02:08:45;98743.50;;;19.35;65.17
16544;BME280;8384;47.996;7.786;2023-07-08T02:11:10;98737.91;;;19.17;66.35
16544;BME280;8384;47.996;7.786;2023-07-08T02:13:36;98741.78;;;18.62;68.82
16544;BME280;8384;47.996;7.786;2023-07-08T02:16:01;98737.13;;;18.26;72.02
16544;BME280;8384;47.996;7.786;2023-07-08T02:18:26;98759.88;;;18.23;70.61
16544;BME280;8384;47.996;7.786;2023-07-08T02:20:51;98776.50;;;18.09;69.30
16544;BME280;8384;47.996;7.786;2023-07-08T02:23:18;98781.19;;;18.08;70.73
16544;BME280;8384;47.996;7.786;2023-07-08T02:25:53;98799.72;;;18.58;69.72
16544;BME280;8384;47.996;7.786;2023-07-08T02:28:19;98815.50;;;18.81;65.00
16544;BME280;8384;47.996;7.786;2023-07-08T02:30:44;98826.16;;;19.33;62.91
16544;BME280;8384;47.996;7.786;2023-07-08T02:33:11;98820.28;;;19.66;60.21
16544;BME280;8384;47.996;7.786;2023-07-08T02:35:36;98855.13;;;19.90;60.40
16544;BME280;8384;47.996;7.786;2023-07-08T02:38:02;98853.22;;;19.99;58.60
16544;BME280;8384;47.996;7.786;2023-07-08T02:40:28;98849.13;;;19.97;58.88
16544;BME280;8384;47.996;7.786;2023-07-08T02:42:53;98846.84;;;19.99;58.71
16544;BME280;8384;47.996;7.786;2023-07-08T02:45:19;98853.75;;;20.10;58.60
16544;BME280;8384;47.996;7.786;2023-07-08T02:47:44;98872.69;;;20.17;58.80
16544;BME280;8384;47.996;7.786;2023-07-08T02:50:10;98860.72;;;19.99;59.64
16544;BME280;8384;47.996;7.786;2023-07-08T02:52:36;98856.28;;;19.89;60.04
16544;BME280;8384;47.996;7.786;2023-07-08T02:55:02;98849.28;;;20.00;59.78
16544;BME280;8384;47.996;7.786;2023-07-08T02:57:27;98844.56;;;20.10;59.26
16544;BME280;8384;47.996;7.786;2023-07-08T02:59:53;98836.03;;;19.88;59.42
16544;BME280;8384;47.996;7.786;2023-07-08T03:02:18;98845.88;;;20.03;59.34
16544;BME280;8384;47.996;7.786;2023-07-08T03:04:43;98851.47;;;20.12;58.55
16544;BME280;8384;47.996;7.786;2023-07-08T03:07:08;98846.22;;;20.11;58.79
16544;BME280;8384;47.996;7.786;2023-07-08T03:09:40;98853.22;;;19.99;59.39
16544;BME280;8384;47.996;7.786;2023-07-08T03:12:07;98845.19;;;19.98;59.69
16544;BME280;8384;47.996;7.786;2023-07-08T03:14:32;98871.94;;;19.62;62.78
16544;BME280;8384;47.996;7.786;2023-07-08T03:16:58;98892.44;;;19.52;63.19
16544;BME280;8384;47.996;7.786;2023-07-08T03:19:23;98889.56;;;19.57;62.67
16544;BME280;8384;47.996;7.786;2023-07-08T03:21:48;98909.25;;;19.56;62.34
16544;BME280;8384;47.996;7.786;2023-07-08T03:24:14;98901.28;;;19.54;62.47
16544;BME280;8384;47.996;7.786;2023-07-08T03:26:43;98908.63;;;19.59;62.16
16544;BME280;8384;47.996;7.786;2023-07-08T03:29:13;98934.19;;;19.78;61.90
16544;BME280;8384;47.996;7.786;2023-07-08T03:31:39;98926.94;;;19.69;63.06
16544;BME280;8384;47.996;7.786;2023-07-08T03:34:04;98924.00;;;19.65;64.17
16544;BME280;8384;47.996;7.786;2023-07-08T03:36:29;98944.84;;;19.85;65.20
16544;BME280;8384;47.996;7.786;2023-07-08T03:38:56;98953.72;;;19.96;65.29
16544;BME280;8384;47.996;7.786;2023-07-08T03:41:22;98949.38;;;20.13;64.93
16544;BME280;8384;47.996;7.786;2023-07-08T03:43:48;98953.72;;;20.36;64.62
16544;BME280;8384;47.996;7.786;2023-07-08T03:46:15;98939.22;;;20.48;64.22
16544;BME280;8384;47.996;7.786;2023-07-08T03:48:41;98971.00;;;20.82;64.01
16544;BME280;8384;47.996;7.786;2023-07-08T03:51:21;98948.75;;;20.74;63.98
16544;BME280;8384;47.996;7.786;2023-07-08T03:53:47;98974.94;;;20.90;64.52
16544;BME280;8384;47.996;7.786;2023-07-08T03:56:12;98990.97;;;21.11;65.00
16544;BME280;8384;47.996;7.786;2023-07-08T03:58:40;98995.38;;;21.03;65.70
16544;BME280;8384;47.996;7.786;2023-07-08T04:01:13;98980.00;;;20.97;65.99
16544;BME280;8384;47.996;7.786;2023-07-08T04:03:39;98996.03;;;21.09;66.30
16544;BME280;8384;47.996;7.786;2023-07-08T04:06:04;98974.28;;;21.02;67.17
16544;BME280;8384;47.996;7.786;2023-07-08T04:08:30;98986.91;;;21.00;67.74
16544;BME280;8384;47.996;7.786;2023-07-08T04:10:55;98990.47;;;20.82;69.33
16544;BME280;8384;47.996;7.786;2023-07-08T04:13:20;98995.38;;;20.45;72.44
16544;BME280;8384;47.996;7.786;2023-07-08T04:15:51;98996.94;;;20.20;75.21
16544;BME280;8384;47.996;7.786;2023-07-08T04:18:19;99026.38;;;19.98;77.19
16544;BME280;8384;47.996;7.786;2023-07-08T04:20:44;99055.94;;;20.03;78.50
16544;BME280;8384;47.996;7.786;2023-07-08T04:23:09;99069.44;;;19.82;80.11
16544;BME280;8384;47.996;7.786;2023-07-08T04:25:35;99049.03;;;19.77;81.84
16544;BME280;8384;47.996;7.786;2023-07-08T04:28:00;99049.56;;;19.43;83.32
16544;BME280;8384;47.996;7.786;2023-07-08T04:30:25;99029.53;;;19.23;86.18
16544;BME280;8384;47.996;7.786;2023-07-08T04:32:51;99050.81;;;19.00;87.86
16544;BME280;8384;47.996;7.786;2023-07-08T04:35:17;99025.06;;;18.85;89.56
16544;BME280;8384;47.996;7.786;2023-07-08T04:37:42;99036.66;;;18.87;89.80
16544;BME280;8384;47.996;7.786;2023-07-08T04:40:16;99028.03;;;18.75;91.41
16544;BME280;8384;47.996;7.786;2023-07-08T04:42:42;99025.16;;;18.66;93.06
16544;BME280;8384;47.996;7.786;2023-07-08T04:45:07;99024.66;;;18.64;90.70
16544;BME280;8384;47.996;7.786;2023-07-08T04:47:33;99042.72;;;18.62;90.45
16544;BME280;8384;47.996;7.786;2023-07-08T04:49:59;99051.31;;;18.46;91.54
16544;BME280;8384;47.996;7.786;2023-07-08T04:52:24;99069.66;;;18.42;92.76
16544;BME280;8384;47.996;7.786;2023-07-08T04:54:49;99094.94;;;18.21;92.38
16544;BME280;8384;47.996;7.786;2023-07-08T04:57:14;99083.34;;;17.86;95.66
16544;BME280;8384;47.996;7.786;2023-07-08T04:59:41;99123.69;;;17.87;98.02
16544;BME280;8384;47.996;7.786;2023-07-08T05:02:06;99130.50;;;17.57;100.00
16544;BME280;8384;47.996;7.786;2023-07-08T05:04:33;99145.88;;;17.44;100.00
16544;BME280;8384;47.996;7.786;2023-07-08T05:06:58;99141.41;;;17.48;100.00
16544;BME280;8384;47.996;7.786;2023-07-08T05:09:23;99118.63;;;17.56;100.00
16544;BME280;8384;47.996;7.786;2023-07-08T05:11:51;99126.31;;;17.40;100.00
16544;BME280;8384;47.996;7.786;2023-07-08T05:14:16;99109.66;;;17.45;100.00
16544;BME280;8384;47.996;7.786;2023-07-08T05:16:41;99079.03;;;17.42;100.00
16544;BME280;8384;47.996;7.786;2023-07-08T05:19:07;99054.84;;;17.33;100.00
16544;BME280;8384;47.996;7.786;2023-07-08T05:21:32;99069.63;;;17.43;100.00
16544;BME280;8384;47.996;7.786;2023-07-08T05:24:03;99042.50;;;17.26;100.00
16544;BME280;8384;47.996;7.786;2023-07-08T05:26:29;99017.94;;;17.24;100.00
16544;BME280;8384;47.996;7.786;2023-07-08T05:28:55;99022.03;;;17.27;100.00
16544;BME280;8384;47.996;7.786;2023-07-08T05:31:20;99001.91;;;17.26;100.00
16544;BME280;8384;47.996;7.786;2023-07-08T05:33:45;98996.38;;;17.26;100.00
16544;BME280;8384;47.996;7.786;2023-07-08T05:36:11;98983.09;;;17.28;99.53
16544;BME280;8384;47.996;7.786;2023-07-08T05:38:36;98988.47;;;17.19;99.54
16544;BME280;8384;47.996;7.786;2023-07-08T05:41:01;99004.34;;;17.28;99.73
16544;BME280;8384;47.996;7.786;2023-07-08T05:43:26;99020.84;;;17.14;100.00
16544;BME280;8384;47.996;7.786;2023-07-08T05:45:52;99003.03;;;17.06;100.00
16544;BME280;8384;47.996;7.786;2023-07-08T05:48:21;98979.59;;;17.03;100.00
16544;BME280;8384;47.996;7.786;2023-07-08T05:50:47;98956.13;;;17.20;97.81
16544;BME280;8384;47.996;7.786;2023-07-08T05:53:13;98971.44;;;17.31;96.12
16544;BME280;8384;47.996;7.786;2023-07-08T05:55:39;98928.94;;;17.46;92.48
16544;BME280;8384;47.996;7.786;2023-07-08T05:58:07;98932.06;;;17.39;97.18
16544;BME280;8384;47.996;7.786;2023-07-08T06:00:32;98910.81;;;17.54;97.26
16544;BME280;8384;47.996;7.786;2023-07-08T06:02:58;98883.28;;;17.49;96.74
16544;BME280;8384;47.996;7.786;2023-07-08T06:05:23;98886.47;;;17.56;92.85
16544;BME280;8384;47.996;7.786;2023-07-08T06:07:48;98879.50;;;17.73;86.92
16544;BME280;8384;47.996;7.786;2023-07-08T06:10:14;98902.09;;;18.08;86.82
16544;BME280;8384;47.996;7.786;2023-07-08T06:12:39;98918.28;;;18.28;87.82
16544;BME280;8384;47.996;7.786;2023-07-08T06:15:05;98926.16;;;18.21;92.55
16544;BME280;8384;47.996;7.786;2023-07-08T06:17:30;98919.91;;;18.02;94.11
16544;BME280;8384;47.996;7.786;2023-07-08T06:19:55;98944.50;;;18.31;92.06
16544;BME280;8384;47.996;7.786;2023-07-08T06:22:21;98913.38;;;18.11;93.64
16544;BME280;8384;47.996;7.786;2023-07-08T06:24:46;98942.84;;;18.44;90.17
16544;BME280;8384;47.996;7.786;2023-07-08T06:27:12;98928.69;;;18.59;86.54
16544;BME280;8384;47.996;7.786;2023-07-08T06:29:38;98913.28;;;18.67;84.57
16544;BME280;8384;47.996;7.786;2023-07-08T06:32:03;98927.72;;;18.78;83.06
16544;BME280;8384;47.996;7.786;2023-07-08T06:34:29;98914.53;;;18.61;82.11
16544;BME280;8384;47.996;7.786;2023-07-08T06:36:54;98943.72;;;18.95;84.98
16544;BME280;8384;47.996;7.786;2023-07-08T06:39:19;98927.88;;;18.59;88.19
16544;BME280;8384;47.996;7.786;2023-07-08T06:41:45;98943.97;;;18.57;88.91
16544;BME280;8384;47.996;7.786;2023-07-08T06:44:10;98938.84;;;18.50;92.38
16544;BME280;8384;47.996;7.786;2023-07-08T06:46:36;98927.88;;;18.45;92.75
16544;BME280;8384;47.996;7.786;2023-07-08T06:49:02;98947.06;;;18.55;94.39
16544;BME280;8384;47.996;7.786;2023-07-08T06:51:27;98958.66;;;18.43;96.70
16544;BME280;8384;47.996;7.786;2023-07-08T06:53:53;98957.19;;;18.46;91.74
16544;BME280;8384;47.996;7.786;2023-07-08T06:56:18;98965.19;;;18.62;93.36
16544;BME280;8384;47.996;7.786;2023-07-08T06:58:44;98959.56;;;18.67;92.15
16544;BME280;8384;47.996;7.786;2023-07-08T07:01:09;98965.41;;;18.51;94.78
16544;BME280;8384;47.996;7.786;2023-07-08T07:03:34;98950.44;;;18.38;95.99
16544;BME280;8384;47.996;7.786;2023-07-08T07:06:00;99010.69;;;18.83;97.34
16544;BME280;8384;47.996;7.786;2023-07-08T07:08:25;99014.69;;;19.05;94.39
16544;BME280;8384;47.996;7.786;2023-07-08T07:10:50;98994.22;;;19.15;91.71
16544;BME280;8384;47.996;7.786;2023-07-08T07:13:15;98999.22;;;19.49;90.50
16544;BME280;8384;47.996;7.786;2023-07-08T07:15:41;98961.63;;;19.57;89.71
16544;BME280;8384;47.996;7.786;2023-07-08T07:18:06;99005.22;;;20.11;87.47
16544;BME280;8384;47.996;7.786;2023-07-08T07:20:32;99001.66;;;20.19;89.05
16544;BME280;8384;47.996;7.786;2023-07-08T07:22:58;98999.50;;;20.57;85.24
16544;BME280;8384;47.996;7.786;2023-07-08T07:25:23;99021.31;;;20.81;83.16
16544;BME280;8384;47.996;7.786;2023-07-08T07:27:48;99022.03;;;21.04;83.60
16544;BME280;8384;47.996;7.786;2023-07-08T07:30:14;99011.75;;;21.22;80.44
16544;BME280;8384;47.996;7.786;2023-07-08T07:32:41;99011.75;;;21.22;77.88
16544;BME280;8384;47.996;7.786;2023-07-08T07:35:07;99034.81;;;21.23;76.52
16544;BME280;8384;47.996;7.786;2023-07-08T07:37:32;99027.94;;;21.11;78.47
16544;BME280;8384;47.996;7.786;2023-07-08T07:39:57;99041.34;;;21.09;78.74
16544;BME280;8384;47.996;7.786;2023-07-08T07:42:22;99036.28;;;21.47;77.11
16544;BME280;8384;47.996;7.786;2023-07-08T07:44:48;99050.19;;;21.47;76.85
16544;BME280;8384;47.996;7.786;2023-07-08T07:47:13;99059.72;;;21.63;75.01
16544;BME280;8384;47.996;7.786;2023-07-08T07:49:39;99043.34;;;21.79;76.38
16544;BME280;8384;47.996;7.786;2023-07-08T07:52:05;99055.47;;;22.40;75.12
16544;BME280;8384;47.996;7.786;2023-07-08T07:54:31;99037.16;;;22.30;74.17
16544;BME280;8384;47.996;7.786;2023-07-08T07:56:56;99051.66;;;21.97;77.19
16544;BME280;8384;47.996;7.786;2023-07-08T07:59:22;99052.19;;;21.64;78.64
16544;BME280;8384;47.996;7.786;2023-07-08T08:01:47;99049.72;;;21.53;79.98
16544;BME280;8384;47.996;7.786;2023-07-08T08:04:13;99067.91;;;21.77;79.69
16544;BME280;8384;47.996;7.786;2023-07-08T08:06:38;99073.13;;;21.70;81.18
16544;BME280;8384;47.996;7.786;2023-07-08T08:09:05;99042.53;;;21.70;79.06
16544;BME280;8384;47.996;7.786;2023-07-08T08:11:30;99064.13;;;21.73;79.70
16544;BME280;8384;47.996;7.786;2023-07-08T08:13:56;99079.19;;;21.72;80.71
16544;BME280;8384;47.996;7.786;2023-07-08T08:16:21;99078.69;;;21.79;82.65
16544;BME280;8384;47.996;7.786;2023-07-08T08:18:46;99060.19;;;21.74;82.15
16544;BME280;8384;47.996;7.786;2023-07-08T08:21:12;99079.50;;;21.88;81.43
16544;BME280;8384;47.996;7.786;2023-07-08T08:23:37;99074.25;;;21.42;82.79
16544;BME280;8384;47.996;7.786;2023-07-08T08:26:02;99070.81;;;21.54;80.44
16544;BME280;8384;47.996;7.786;2023-07-08T08:28:28;99064.44;;;21.63;80.56
16544;BME280;8384;47.996;7.786;2023-07-08T08:30:53;99075.38;;;22.12;80.54
16544;BME280;8384;47.996;7.786;2023-07-08T08:33:19;99071.09;;;22.23;77.83
16544;BME280;8384;47.996;7.786;2023-07-08T08:35:45;99077.97;;;22.73;72.82
16544;BME280;8384;47.996;7.786;2023-07-08T08:38:11;99065.06;;;22.99;71.71
16544;BME280;8384;47.996;7.786;2023-07-08T08:40:36;99069.16;;;23.52;70.86
16544;BME280;8384;47.996;7.786;2023-07-08T08:43:05;99067.31;;;23.99;67.39
16544;BME280;8384;47.996;7.786;2023-07-08T08:45:36;99068.94;;;24.46;66.59
16544;BME280;8384;47.996;7.786;2023-07-08T08:48:09;99074.13;;;24.94;62.32
16544;BME280;8384;47.996;7.786;2023-07-08T08:50:41;99064.50;;;25.44;61.37
16544;BME280;8384;47.996;7.786;2023-07-08T08:53:11;99069.09;;;25.65;59.50
16544;BME280;8384;47.996;7.786;2023-07-08T08:55:37;99047.38;;;25.74;58.93
16544;BME280;8384;47.996;7.786;2023-07-08T08:58:12;99051.59;;;25.97;56.70
16544;BME280;8384;47.996;7.786;2023-07-08T09:00:54;99053.59;;;25.96;57.39
16544;BME280;8384;47.996;7.786;2023-07-08T09:03:56;99061.97;;;26.25;55.37
16544;BME280;8384;47.996;7.786;2023-07-08T09:06:29;99054.50;;;26.45;55.25
16544;BME280;8384;47.996;7.786;2023-07-08T09:08:57;99050.97;;;26.32;55.28
16544;BME280;8384;47.996;7.786;2023-07-08T09:11:57;99056.38;;;26.25;54.80
16544;BME280;8384;47.996;7.786;2023-07-08T09:14:28;99050.91;;;25.71;58.40
16544;BME280;8384;47.996;7.786;2023-07-08T09:17:22;99062.06;;;25.43;58.17
16544;BME280;8384;47.996;7.786;2023-07-08T09:27:41;99040.41;;;25.68;57.90
16544;BME280;8384;47.996;7.786;2023-07-08T09:30:14;99028.50;;;25.71;58.50
16544;BME280;8384;47.996;7.786;2023-07-08T09:32:40;99038.09;;;26.15;56.80
16544;BME280;8384;47.996;7.786;2023-07-08T09:35:07;99039.50;;;25.93;57.32
16544;BME280;8384;47.996;7.786;2023-07-08T09:37:38;99043.88;;;25.78;56.67
16544;BME280;8384;47.996;7.786;2023-07-08T09:40:16;99043.56;;;25.95;57.48
16544;BME280;8384;47.996;7.786;2023-07-08T09:42:43;99042.00;;;25.82;56.67
16544;BME280;8384;47.996;7.786;2023-07-08T09:45:15;99048.31;;;25.79;57.92
16544;BME280;8384;47.996;7.786;2023-07-08T09:47:42;99040.25;;;25.77;58.16
16544;BME280;8384;47.996;7.786;2023-07-08T09:50:19;99046.22;;;25.75;56.81
16544;BME280;8384;47.996;7.786;2023-07-08T09:52:46;99045.97;;;25.81;58.40
16544;BME280;8384;47.996;7.786;2023-07-08T09:55:13;99036.41;;;25.98;55.96
16544;BME280;8384;47.996;7.786;2023-07-08T09:57:39;99028.00;;;25.98;56.36
16544;BME280;8384;47.996;7.786;2023-07-08T10:00:13;99042.94;;;26.30;57.23
16544;BME280;8384;47.996;7.786;2023-07-08T10:05:29;99041.09;;;26.22;56.53
16544;BME280;8384;47.996;7.786;2023-07-08T10:07:57;99032.25;;;26.52;57.57
16544;BME280;8384;47.996;7.786;2023-07-08T10:10:30;99030.16;;;26.97;55.17
16544;BME280;8384;47.996;7.786;2023-07-08T10:13:00;99048.00;;;27.80;52.95
16544;BME280;8384;47.996;7.786;2023-07-08T10:15:31;99044.94;;;27.69;52.77
16544;BME280;8384;47.996;7.786;2023-07-08T10:17:57;99039.03;;;27.74;50.99
16544;BME280;8384;47.996;7.786;2023-07-08T10:20:23;99047.81;;;27.92;51.84
16544;BME280;8384;47.996;7.786;2023-07-08T10:22:58;99046.97;;;28.31;50.70
16544;BME280;8384;47.996;7.786;2023-07-08T10:25:54;99046.81;;;28.43;49.92
16544;BME280;8384;47.996;7.786;2023-07-08T10:28:44;99035.97;;;27.24;49.60
16544;BME280;8384;47.996;7.786;2023-07-08T10:31:19;99038.09;;;27.47;49.57
16544;BME280;8384;47.996;7.786;2023-07-08T10:34:01;99040.03;;;28.05;47.29
16544;BME280;8384;47.996;7.786;2023-07-08T10:36:43;99038.78;;;28.69;46.68
16544;BME280;8384;47.996;7.786;2023-07-08T10:44:35;99051.13;;;29.72;42.07
16544;BME280;8384;47.996;7.786;2023-07-08T10:47:21;99030.81;;;29.55;40.82
16544;BME280;8384;47.996;7.786;2023-07-08T10:50:26;99040.97;;;29.63;41.08
16544;BME280;8384;47.996;7.786;2023-07-08T10:55:32;99040.84;;;30.66;38.76
16544;BME280;8384;47.996;7.786;2023-07-08T10:58:29;99043.16;;;29.77;40.42
16544;BME280;8384;47.996;7.786;2023-07-08T11:03:43;99032.75;;;30.61;38.17
16544;BME280;8384;47.996;7.786;2023-07-08T11:06:41;99045.75;;;31.29;36.56
16544;BME280;8384;47.996;7.786;2023-07-08T11:09:11;99037.06;;;30.06;37.20
16544;BME280;8384;47.996;7.786;2023-07-08T11:14:25;99037.94;;;29.80;39.06
16544;BME280;8384;47.996;7.786;2023-07-08T11:17:07;99033.94;;;30.15;38.16
16544;BME280;8384;47.996;7.786;2023-07-08T11:19:38;99010.72;;;30.29;38.53
16544;BME280;8384;47.996;7.786;2023-07-08T11:22:11;99029.16;;;30.19;37.71
16544;BME280;8384;47.996;7.786;2023-07-08T11:24:43;99034.66;;;30.49;36.48
16544;BME280;8384;47.996;7.786;2023-07-08T11:27:21;99028.00;;;30.27;35.82
16544;BME280;8384;47.996;7.786;2023-07-08T11:29:55;99037.84;;;30.48;35.89
16544;BME280;8384;47.996;7.786;2023-07-08T11:32:23;99045.16;;;30.11;37.44
16544;BME280;8384;47.996;7.786;2023-07-08T11:34:52;99031.84;;;29.43;36.97
16544;BME280;8384;47.996;7.786;2023-07-08T11:37:19;99020.56;;;29.40;38.56
16544;BME280;8384;47.996;7.786;2023-07-08T11:40:38;99032.63;;;29.40;36.73
16544;BME280;8384;47.996;7.786;2023-07-08T11:42:43;99033.34;;;29.64;35.91
16544;BME280;8384;47.996;7.786;2023-07-08T11:47:45;99025.06;;;30.16;36.67
16544;BME280;8384;47.996;7.786;2023-07-08T11:50:23;99015.28;;;30.03;36.41
16544;BME280;8384;47.996;7.786;2023-07-08T11:52:58;99023.66;;;30.37;35.60
16544;BME280;8384;47.996;7.786;2023-07-08T11:55:37;99020.81;;;30.33;35.32
16544;BME280;8384;47.996;7.786;2023-07-08T11:58:07;99017.81;;;30.15;35.35
16544;BME280;8384;47.996;7.786;2023-07-08T12:00:33;98975.88;;;30.10;35.24
16544;BME280;8384;47.996;7.786;2023-07-08T12:03:04;99018.00;;;29.96;35.91
16544;BME280;8384;47.996;7.786;2023-07-08T12:05:43;99017.16;;;29.57;35.47
16544;BME280;8384;47.996;7.786;2023-07-08T12:08:17;99018.19;;;29.42;34.54
16544;BME280;8384;47.996;7.786;2023-07-08T12:10:51;99012.13;;;29.74;36.49
16544;BME280;8384;47.996;7.786;2023-07-08T12:13:21;99023.41;;;29.43;36.21
16544;BME280;8384;47.996;7.786;2023-07-08T12:15:48;99021.34;;;29.71;34.95
16544;BME280;8384;47.996;7.786;2023-07-08T12:18:22;99016.06;;;29.66;35.86
16544;BME280;8384;47.996;7.786;2023-07-08T12:20:53;99013.38;;;29.80;35.97
16544;BME280;8384;47.996;7.786;2023-07-08T12:23:21;98993.44;;;29.96;35.59
16544;BME280;8384;47.996;7.786;2023-07-08T12:25:47;99007.47;;;30.27;34.43
16544;BME280;8384;47.996;7.786;2023-07-08T12:28:14;99018.69;;;30.23;34.06
16544;BME280;8384;47.996;7.786;2023-07-08T12:30:39;98989.16;;;30.55;34.68
16544;BME280;8384;47.996;7.786;2023-07-08T12:33:21;98987.50;;;30.50;33.55
16544;BME280;8384;47.996;7.786;2023-07-08T12:35:48;99009.56;;;30.37;32.13
16544;BME280;8384;47.996;7.786;2023-07-08T12:38:28;98998.88;;;30.57;32.46
16544;BME280;8384;47.996;7.786;2023-07-08T12:41:09;99007.72;;;30.56;32.95
16544;BME280;8384;47.996;7.786;2023-07-08T12:43:35;98997.69;;;31.18;32.16
16544;BME280;8384;47.996;7.786;2023-07-08T12:46:00;98981.72;;;31.58;31.85
16544;BME280;8384;47.996;7.786;2023-07-08T12:48:31;99003.25;;;31.07;32.71
16544;BME280;8384;47.996;7.786;2023-07-08T12:50:56;98984.97;;;30.82;33.76
16544;BME280;8384;47.996;7.786;2023-07-08T12:53:21;99003.09;;;31.48;31.07
16544;BME280;8384;47.996;7.786;2023-07-08T12:55:50;98983.38;;;30.89;32.24
16544;BME280;8384;47.996;7.786;2023-07-08T12:58:24;98989.13;;;31.07;32.39
16544;BME280;8384;47.996;7.786;2023-07-08T13:00:51;99005.63;;;31.79;32.40
16544;BME280;8384;47.996;7.786;2023-07-08T13:03:18;98994.66;;;31.63;33.08
16544;BME280;8384;47.996;7.786;2023-07-08T13:05:47;98983.94;;;32.44;29.59
16544;BME280;8384;47.996;7.786;2023-07-08T13:08:15;98993.22;;;32.67;30.58
16544;BME280;8384;47.996;7.786;2023-07-08T13:10:42;98993.22;;;32.96;30.08
16544;BME280;8384;47.996;7.786;2023-07-08T13:13:12;98993.75;;;33.72;28.83
16544;BME280;8384;47.996;7.786;2023-07-08T13:15:40;98966.69;;;34.24;27.32
16544;BME280;8384;47.996;7.786;2023-07-08T13:18:19;98981.47;;;32.68;29.59
16544;BME280;8384;47.996;7.786;2023-07-08T13:20:49;98981.81;;;31.76;31.93
16544;BME280;8384;47.996;7.786;2023-07-08T13:23:15;98982.09;;;31.53;32.29
16544;BME280;8384;47.996;7.786;2023-07-08T13:25:40;98962.63;;;31.30;31.35
16544;BME280;8384;47.996;7.786;2023-07-08T13:28:24;98982.28;;;32.11;28.84
16544;BME280;8384;47.996;7.786;2023-07-08T13:30:57;98975.00;;;32.03;29.34
16544;BME280;8384;47.996;7.786;2023-07-08T13:33:29;98969.31;;;31.77;30.20
16544;BME280;8384;47.996;7.786;2023-07-08T13:35:55;98964.06;;;31.83;30.25
16544;BME280;8384;47.996;7.786;2023-07-08T13:38:23;98951.47;;;31.66;29.74
16544;BME280;8384;47.996;7.786;2023-07-08T13:40:53;98972.00;;;31.48;29.18
16544;BME280;8384;47.996;7.786;2023-07-08T13:43:24;98965.75;;;32.35;27.59
16544;BME280;8384;47.996;7.786;2023-07-08T13:45:50;98963.31;;;32.26;27.22